sensor_id;sensor_type;location;lat;lon;timestamp;pressure;altitude;pressure_sealevel;temperature;humidity
50977;BME280;36992;48.200;12.418;2024-03-08T00:01:13;96693.63;;;7.22;49.20
50977;BME280;36992;48.200;12.418;2024-03-08T00:03:41;96692.81;;;7.21;49.01
50977;BME280;36992;48.200;12.418;2024-03-08T00:06:08;96694.69;;;7.21;48.86
50977;BME280;36992;48.200;12.418;2024-03-08T00:08:34;96689.34;;;7.21;48.74
50977;BME280;36992;48.200;12.418;2024-03-08T00:11:00;96693.88;;;7.20;48.85
50977;BME280;36992;48.200;12.418;2024-03-08T00:13:28;96693.63;;;7.22;48.85
50977;BME280;36992;48.200;12.418;2024-03-08T00:15:55;96693.09;;;7.20;48.83
50977;BME280;36992;48.200;12.418;2024-03-08T00:18:22;96684.50;;;7.18;48.31
50977;BME280;36992;48.200;12.418;2024-03-08T00:20:49;96684.78;;;7.16;47.97
50977;BME280;36992;48.200;12.418;2024-03-08T00:23:16;96682.66;;;7.13;48.85
50977;BME280;36992;48.200;12.418;2024-03-08T00:25:42;96683.19;;;7.10;48.98
50977;BME280;36992;48.200;12.418;2024-03-08T00:28:09;96679.19;;;7.07;48.72
50977;BME280;36992;48.200;12.418;2024-03-08T00:30:40;96674.88;;;7.06;49.12
50977;BME280;36992;48.200;12.418;2024-03-08T00:33:07;96679.19;;;7.02;48.63
50977;BME280;36992;48.200;12.418;2024-03-08T00:35:34;96674.34;;;6.99;48.44
50977;BME280;36992;48.200;12.418;2024-03-08T00:38:00;96668.47;;;6.97;49.30
50977;BME280;36992;48.200;12.418;2024-03-08T00:40:27;96669.00;;;6.94;49.34
50977;BME280;36992;48.200;12.418;2024-03-08T00:42:54;96665.78;;;6.92;49.04
50977;BME280;36992;48.200;12.418;2024-03-08T00:45:21;96666.34;;;6.88;49.56
50977;BME280;36992;48.200;12.418;2024-03-08T00:47:50;96663.66;;;6.88;49.46
50977;BME280;36992;48.200;12.418;2024-03-08T00:50:16;96660.44;;;6.86;49.12
50977;BME280;36992;48.200;12.418;2024-03-08T00:52:43;96659.91;;;6.84;50.04
50977;BME280;36992;48.200;12.418;2024-03-08T00:55:09;96664.47;;;6.84;49.93
50977;BME280;36992;48.200;12.418;2024-03-08T00:57:36;96657.50;;;6.83;49.46
50977;BME280;36992;48.200;12.418;2024-03-08T01:00:04;96654.81;;;6.83;50.03
50977;BME280;36992;48.200;12.418;2024-03-08T01:02:34;96643.03;;;6.84;49.29
50977;BME280;36992;48.200;12.418;2024-03-08T01:05:02;96645.44;;;6.85;49.79
50977;BME280;36992;48.200;12.418;2024-03-08T01:07:29;96648.38;;;6.84;49.35
50977;BME280;36992;48.200;12.418;2024-03-08T01:09:56;96644.94;;;6.83;49.07
50977;BME280;36992;48.200;12.418;2024-03-08T01:12:22;96634.47;;;6.82;48.73
50977;BME280;36992;48.200;12.418;2024-03-08T01:14:49;96641.69;;;6.81;49.36
50977;BME280;36992;48.200;12.418;2024-03-08T01:17:15;96636.91;;;6.78;49.71
50977;BME280;36992;48.200;12.418;2024-03-08T01:19:42;96631.53;;;6.78;49.43
50977;BME280;36992;48.200;12.418;2024-03-08T01:22:11;96631.53;;;6.78;50.02
50977;BME280;36992;48.200;12.418;2024-03-08T01:24:37;96625.66;;;6.76;49.97
50977;BME280;36992;48.200;12.418;2024-03-08T01:27:04;96626.72;;;6.75;49.81
50977;BME280;36992;48.200;12.418;2024-03-08T01:29:31;96622.44;;;6.74;49.53
50977;BME280;36992;48.200;12.418;2024-03-08T01:31:57;96621.66;;;6.73;49.56
50977;BME280;36992;48.200;12.418;2024-03-08T01:34:26;96619.22;;;6.72;49.60
50977;BME280;36992;48.200;12.418;2024-03-08T01:36:54;96614.41;;;6.69;50.11
50977;BME280;36992;48.200;12.418;2024-03-08T01:39:23;96608.25;;;6.68;49.85
50977;BME280;36992;48.200;12.418;2024-03-08T01:41:49;96606.41;;;6.64;49.70
50977;BME280;36992;48.200;12.418;2024-03-08T01:44:16;96606.41;;;6.64;49.89
50977;BME280;36992;48.200;12.418;2024-03-08T01:46:43;96599.97;;;6.59;49.75
50977;BME280;36992;48.200;12.418;2024-03-08T01:49:11;96609.59;;;6.60;50.19
50977;BME280;36992;48.200;12.418;2024-03-08T01:51:38;96603.16;;;6.56;49.39
50977;BME280;36992;48.200;12.418;2024-03-08T01:54:06;96595.13;;;6.56;49.66
50977;BME280;36992;48.200;12.418;2024-03-08T01:56:37;96591.41;;;6.57;49.54
50977;BME280;36992;48.200;12.418;2024-03-08T01:59:05;96588.72;;;6.52;49.57
50977;BME280;36992;48.200;12.418;2024-03-08T02:01:33;96589.00;;;6.51;49.85
50977;BME280;36992;48.200;12.418;2024-03-08T02:04:00;96584.97;;;6.48;49.92
50977;BME280;36992;48.200;12.418;2024-03-08T02:06:27;96584.44;;;6.46;49.66
50977;BME280;36992;48.200;12.418;2024-03-08T02:08:53;96579.63;;;6.43;50.30
50977;BME280;36992;48.200;12.418;2024-03-08T02:11:20;96574.56;;;6.41;50.41
50977;BME280;36992;48.200;12.418;2024-03-08T02:13:48;96570.25;;;6.40;50.21
50977;BME280;36992;48.200;12.418;2024-03-08T02:16:20;96574.81;;;6.40;50.20
50977;BME280;36992;48.200;12.418;2024-03-08T02:18:47;96568.38;;;6.36;49.73
50977;BME280;36992;48.200;12.418;2024-03-08T02:21:17;96563.31;;;6.34;50.20
50977;BME280;36992;48.200;12.418;2024-03-08T02:23:44;96558.50;;;6.31;50.93
50977;BME280;36992;48.200;12.418;2024-03-08T02:26:10;96555.56;;;6.27;50.62
50977;BME280;36992;48.200;12.418;2024-03-08T02:28:37;96556.63;;;6.26;50.82
50977;BME280;36992;48.200;12.418;2024-03-08T02:31:04;96556.09;;;6.24;51.13
50977;BME280;36992;48.200;12.418;2024-03-08T02:33:33;96554.47;;;6.23;50.81
50977;BME280;36992;48.200;12.418;2024-03-08T02:36:00;96555.03;;;6.20;51.11
50977;BME280;36992;48.200;12.418;2024-03-08T02:38:28;96554.22;;;6.19;51.35
50977;BME280;36992;48.200;12.418;2024-03-08T02:40:54;96555.56;;;6.17;51.30
50977;BME280;36992;48.200;12.418;2024-03-08T02:43:21;96552.34;;;6.15;51.58
50977;BME280;36992;48.200;12.418;2024-03-08T02:45:50;96551.53;;;6.14;51.28
50977;BME280;36992;48.200;12.418;2024-03-08T02:48:18;96554.47;;;6.13;51.57
50977;BME280;36992;48.200;12.418;2024-03-08T02:50:46;96550.19;;;6.12;51.33
50977;BME280;36992;48.200;12.418;2024-03-08T02:53:13;96547.00;;;6.10;51.20
50977;BME280;36992;48.200;12.418;2024-03-08T02:55:41;96547.53;;;6.12;51.11
50977;BME280;36992;48.200;12.418;2024-03-08T02:58:08;96553.41;;;6.09;51.39
50977;BME280;36992;48.200;12.418;2024-03-08T03:00:35;96546.47;;;6.07;51.20
50977;BME280;36992;48.200;12.418;2024-03-08T03:03:02;96551.00;;;6.07;51.76
50977;BME280;36992;48.200;12.418;2024-03-08T03:05:29;96552.59;;;6.03;51.35
50977;BME280;36992;48.200;12.418;2024-03-08T03:07:56;96546.47;;;6.02;51.37
50977;BME280;36992;48.200;12.418;2024-03-08T03:10:23;96550.69;;;5.98;52.10
50977;BME280;36992;48.200;12.418;2024-03-08T03:12:51;96545.88;;;6.00;51.53
50977;BME280;36992;48.200;12.418;2024-03-08T03:15:18;96543.22;;;5.95;52.13
50977;BME280;36992;48.200;12.418;2024-03-08T03:17:46;96540.53;;;5.95;51.81
50977;BME280;36992;48.200;12.418;2024-03-08T03:20:13;96537.31;;;5.93;52.04
50977;BME280;36992;48.200;12.418;2024-03-08T03:22:40;96537.59;;;5.91;52.09
50977;BME280;36992;48.200;12.418;2024-03-08T03:25:07;96531.69;;;5.89;52.29
50977;BME280;36992;48.200;12.418;2024-03-08T03:27:35;96528.78;;;5.91;52.12
50977;BME280;36992;48.200;12.418;2024-03-08T03:30:04;96535.72;;;5.92;51.79
50977;BME280;36992;48.200;12.418;2024-03-08T03:32:46;96537.03;;;5.89;51.73
50977;BME280;36992;48.200;12.418;2024-03-08T03:35:13;96531.97;;;5.88;52.24
50977;BME280;36992;48.200;12.418;2024-03-08T03:37:40;96534.91;;;5.86;51.75
50977;BME280;36992;48.200;12.418;2024-03-08T03:40:08;96532.50;;;5.85;52.24
50977;BME280;36992;48.200;12.418;2024-03-08T03:42:35;96525.56;;;5.84;52.64
50977;BME280;36992;48.200;12.418;2024-03-08T03:45:05;96525.56;;;5.84;52.22
50977;BME280;36992;48.200;12.418;2024-03-08T03:47:32;96531.97;;;5.83;52.11
50977;BME280;36992;48.200;12.418;2024-03-08T03:49:58;96521.53;;;5.81;52.00
50977;BME280;36992;48.200;12.418;2024-03-08T03:52:27;96519.13;;;5.79;52.20
50977;BME280;36992;48.200;12.418;2024-03-08T03:54:53;96519.94;;;5.80;52.43
50977;BME280;36992;48.200;12.418;2024-03-08T03:57:20;96522.31;;;5.81;52.42
50977;BME280;36992;48.200;12.418;2024-03-08T03:59:48;96520.47;;;5.82;52.12
50977;BME280;36992;48.200;12.418;2024-03-08T04:02:17;96511.13;;;5.85;52.04
50977;BME280;36992;48.200;12.418;2024-03-08T04:04:46;96511.38;;;5.83;52.03
50977;BME280;36992;48.200;12.418;2024-03-08T04:07:12;96507.91;;;5.83;52.05
50977;BME280;36992;48.200;12.418;2024-03-08T04:09:39;96506.28;;;5.81;52.11
50977;BME280;36992;48.200;12.418;2024-03-08T04:12:06;96510.03;;;5.80;52.17
50977;BME280;36992;48.200;12.418;2024-03-08T04:14:35;96506.84;;;5.78;51.73
50977;BME280;36992;48.200;12.418;2024-03-08T04:17:01;96509.75;;;5.77;52.32
50977;BME280;36992;48.200;12.418;2024-03-08T04:19:30;96514.84;;;5.78;52.09
50977;BME280;36992;48.200;12.418;2024-03-08T04:21:56;96507.34;;;5.75;51.96
50977;BME280;36992;48.200;12.418;2024-03-08T04:24:23;96499.34;;;5.75;51.91
50977;BME280;36992;48.200;12.418;2024-03-08T04:26:49;96495.34;;;5.73;52.19
50977;BME280;36992;48.200;12.418;2024-03-08T04:29:16;96496.38;;;5.72;52.47
50977;BME280;36992;48.200;12.418;2024-03-08T04:31:42;96491.84;;;5.72;52.27
50977;BME280;36992;48.200;12.418;2024-03-08T04:34:09;96491.34;;;5.70;52.04
50977;BME280;36992;48.200;12.418;2024-03-08T04:36:37;96496.69;;;5.70;52.09
50977;BME280;36992;48.200;12.418;2024-03-08T04:39:04;96495.34;;;5.67;51.83
50977;BME280;36992;48.200;12.418;2024-03-08T04:41:30;96500.41;;;5.64;51.85
50977;BME280;36992;48.200;12.418;2024-03-08T04:43:59;96497.75;;;5.64;51.88
50977;BME280;36992;48.200;12.418;2024-03-08T04:46:26;96494.50;;;5.62;52.51
50977;BME280;36992;48.200;12.418;2024-03-08T04:48:53;96490.25;;;5.61;52.19
50977;BME280;36992;48.200;12.418;2024-03-08T04:51:20;96488.63;;;5.60;52.33
50977;BME280;36992;48.200;12.418;2024-03-08T04:53:48;96484.88;;;5.61;52.36
50977;BME280;36992;48.200;12.418;2024-03-08T04:56:15;96483.28;;;5.60;52.31
50977;BME280;36992;48.200;12.418;2024-03-08T04:58:41;96493.47;;;5.58;52.24
50977;BME280;36992;48.200;12.418;2024-03-08T05:01:07;96480.09;;;5.58;52.06
50977;BME280;36992;48.200;12.418;2024-03-08T05:03:36;96485.94;;;5.54;52.06
50977;BME280;36992;48.200;12.418;2024-03-08T05:06:03;96493.72;;;5.56;52.60
50977;BME280;36992;48.200;12.418;2024-03-08T05:08:30;96491.28;;;5.54;51.97
50977;BME280;36992;48.200;12.418;2024-03-08T05:10:58;96488.09;;;5.58;52.21
50977;BME280;36992;48.200;12.418;2024-03-08T05:13:27;96483.81;;;5.57;52.33
50977;BME280;36992;48.200;12.418;2024-03-08T05:15:54;96484.63;;;5.57;51.88
50977;BME280;36992;48.200;12.418;2024-03-08T05:18:23;96483.81;;;5.57;52.04
50977;BME280;36992;48.200;12.418;2024-03-08T05:20:50;96481.13;;;5.57;52.41
50977;BME280;36992;48.200;12.418;2024-03-08T05:23:17;96481.13;;;5.57;52.29
50977;BME280;36992;48.200;12.418;2024-03-08T05:25:44;96473.13;;;5.57;52.49
50977;BME280;36992;48.200;12.418;2024-03-08T05:28:13;96470.19;;;5.58;51.72
50977;BME280;36992;48.200;12.418;2024-03-08T05:30:40;96467.78;;;5.57;51.64
50977;BME280;36992;48.200;12.418;2024-03-08T05:33:06;96470.44;;;5.57;52.41
50977;BME280;36992;48.200;12.418;2024-03-08T05:35:35;96467.78;;;5.57;51.82
50977;BME280;36992;48.200;12.418;2024-03-08T05:38:02;96465.09;;;5.57;52.10
50977;BME280;36992;48.200;12.418;2024-03-08T05:40:28;96466.19;;;5.56;51.76
50977;BME280;36992;48.200;12.418;2024-03-08T05:42:57;96468.59;;;5.57;52.08
50977;BME280;36992;48.200;12.418;2024-03-08T05:45:25;96464.84;;;5.58;51.79
50977;BME280;36992;48.200;12.418;2024-03-08T05:47:51;96461.66;;;5.56;52.41
50977;BME280;36992;48.200;12.418;2024-03-08T05:50:18;96459.75;;;5.57;52.07
50977;BME280;36992;48.200;12.418;2024-03-08T05:52:44;96458.16;;;5.56;52.38
50977;BME280;36992;48.200;12.418;2024-03-08T05:55:12;96463.25;;;5.57;52.29
50977;BME280;36992;48.200;12.418;2024-03-08T05:57:39;96460.84;;;5.56;52.13
50977;BME280;36992;48.200;12.418;2024-03-08T06:00:06;96467.00;;;5.56;52.20
50977;BME280;36992;48.200;12.418;2024-03-08T06:02:34;96466.72;;;5.58;51.99
50977;BME280;36992;48.200;12.418;2024-03-08T06:05:07;96462.44;;;5.57;52.03
50977;BME280;36992;48.200;12.418;2024-03-08T06:07:34;96462.44;;;5.57;52.39
50977;BME280;36992;48.200;12.418;2024-03-08T06:10:01;96462.44;;;5.57;52.21
50977;BME280;36992;48.200;12.418;2024-03-08T06:12:28;96464.06;;;5.58;51.87
50977;BME280;36992;48.200;12.418;2024-03-08T06:14:58;96454.97;;;5.59;51.83
50977;BME280;36992;48.200;12.418;2024-03-08T06:17:25;96452.56;;;5.57;51.85
50977;BME280;36992;48.200;12.418;2024-03-08T06:19:53;96451.22;;;5.60;51.63
50977;BME280;36992;48.200;12.418;2024-03-08T06:22:19;96454.16;;;5.58;51.92
50977;BME280;36992;48.200;12.418;2024-03-08T06:24:46;96454.69;;;5.55;51.75
50977;BME280;36992;48.200;12.418;2024-03-08T06:27:13;96457.09;;;5.57;51.81
50977;BME280;36992;48.200;12.418;2024-03-08T06:29:39;96451.47;;;5.53;51.92
50977;BME280;36992;48.200;12.418;2024-03-08T06:32:06;96450.44;;;5.54;52.09
50977;BME280;36992;48.200;12.418;2024-03-08T06:34:33;96451.47;;;5.53;51.71
50977;BME280;36992;48.200;12.418;2024-03-08T06:37:02;96457.38;;;5.55;51.91
50977;BME280;36992;48.200;12.418;2024-03-08T06:39:28;96458.72;;;5.52;52.32
50977;BME280;36992;48.200;12.418;2024-03-08T06:41:57;96468.31;;;5.53;52.12
50977;BME280;36992;48.200;12.418;2024-03-08T06:44:23;96459.50;;;5.53;51.92
50977;BME280;36992;48.200;12.418;2024-03-08T06:46:51;96459.22;;;5.54;51.83
50977;BME280;36992;48.200;12.418;2024-03-08T06:49:17;96455.50;;;5.56;52.21
50977;BME280;36992;48.200;12.418;2024-03-08T06:51:44;96455.50;;;5.56;51.76
50977;BME280;36992;48.200;12.418;2024-03-08T06:54:12;96459.50;;;5.58;51.67
50977;BME280;36992;48.200;12.418;2024-03-08T06:56:39;96457.91;;;5.57;52.43
50977;BME280;36992;48.200;12.418;2024-03-08T06:59:05;96461.66;;;5.56;52.49
50977;BME280;36992;48.200;12.418;2024-03-08T07:01:35;96462.16;;;5.58;52.15
50977;BME280;36992;48.200;12.418;2024-03-08T07:04:02;96463.78;;;5.59;52.17
50977;BME280;36992;48.200;12.418;2024-03-08T07:06:30;96455.75;;;5.59;52.20
50977;BME280;36992;48.200;12.418;2024-03-08T07:08:58;96458.97;;;5.61;52.08
50977;BME280;36992;48.200;12.418;2024-03-08T07:11:26;96459.25;;;5.65;52.43
50977;BME280;36992;48.200;12.418;2024-03-08T07:13:53;96457.38;;;5.65;52.16
50977;BME280;36992;48.200;12.418;2024-03-08T07:16:20;96458.69;;;5.68;52.37
50977;BME280;36992;48.200;12.418;2024-03-08T07:18:46;96450.44;;;5.70;52.22
50977;BME280;36992;48.200;12.418;2024-03-08T07:21:13;96458.72;;;5.73;51.83
50977;BME280;36992;48.200;12.418;2024-03-08T07:23:39;96456.84;;;5.74;52.00
50977;BME280;36992;48.200;12.418;2024-03-08T07:26:39;96453.63;;;5.77;51.91
50977;BME280;36992;48.200;12.418;2024-03-08T07:29:06;96458.72;;;5.78;52.38
50977;BME280;36992;48.200;12.418;2024-03-08T07:31:33;96459.25;;;5.80;51.88
50977;BME280;36992;48.200;12.418;2024-03-08T07:34:09;96452.81;;;5.81;51.85
50977;BME280;36992;48.200;12.418;2024-03-08T07:36:36;96456.84;;;5.84;52.22
50977;BME280;36992;48.200;12.418;2024-03-08T07:39:02;96453.91;;;5.86;52.01
50977;BME280;36992;48.200;12.418;2024-03-08T07:41:30;96443.72;;;5.88;51.73
50977;BME280;36992;48.200;12.418;2024-03-08T07:43:58;96452.31;;;5.90;51.96
50977;BME280;36992;48.200;12.418;2024-03-08T07:46:28;96446.69;;;5.91;51.84
50977;BME280;36992;48.200;12.418;2024-03-08T07:48:55;96444.56;;;5.93;51.95
50977;BME280;36992;48.200;12.418;2024-03-08T07:51:22;96437.88;;;5.96;51.88
50977;BME280;36992;48.200;12.418;2024-03-08T07:53:48;96435.19;;;5.96;51.75
50977;BME280;36992;48.200;12.418;2024-03-08T07:56:14;96445.34;;;5.99;51.66
50977;BME280;36992;48.200;12.418;2024-03-08T07:58:43;96440.53;;;6.01;51.77
50977;BME280;36992;48.200;12.418;2024-03-08T08:01:16;96446.44;;;6.09;51.71
50977;BME280;36992;48.200;12.418;2024-03-08T08:03:43;96439.50;;;6.07;51.80
50977;BME280;36992;48.200;12.418;2024-03-08T08:06:09;96435.75;;;6.09;51.26
50977;BME280;36992;48.200;12.418;2024-03-08T08:08:41;96438.16;;;6.10;51.32
50977;BME280;36992;48.200;12.418;2024-03-08T08:11:07;96436.00;;;6.12;51.29
50977;BME280;36992;48.200;12.418;2024-03-08T08:13:34;96429.84;;;6.12;50.96
50977;BME280;36992;48.200;12.418;2024-03-08T08:16:01;96435.75;;;6.14;51.09
50977;BME280;36992;48.200;12.418;2024-03-08T08:18:30;96432.50;;;6.17;51.04
50977;BME280;36992;48.200;12.418;2024-03-08T08:20:58;96434.41;;;6.16;50.87
50977;BME280;36992;48.200;12.418;2024-03-08T08:23:25;96425.00;;;6.19;50.99
50977;BME280;36992;48.200;12.418;2024-03-08T08:25:52;96426.63;;;6.20;50.71
50977;BME280;36992;48.200;12.418;2024-03-08T08:28:18;96419.94;;;6.23;50.68
50977;BME280;36992;48.200;12.418;2024-03-08T08:30:46;96420.19;;;6.26;50.81
50977;BME280;36992;48.200;12.418;2024-03-08T08:33:14;96424.22;;;6.29;50.59
50977;BME280;36992;48.200;12.418;2024-03-08T08:35:42;96411.88;;;6.33;50.77
50977;BME280;36992;48.200;12.418;2024-03-08T08:38:08;96412.69;;;6.33;50.68
50977;BME280;36992;48.200;12.418;2024-03-08T08:40:35;96407.59;;;6.37;50.72
50977;BME280;36992;48.200;12.418;2024-03-08T08:43:02;96408.94;;;6.40;50.42
50977;BME280;36992;48.200;12.418;2024-03-08T08:45:30;96403.00;;;6.43;50.18
50977;BME280;36992;48.200;12.418;2024-03-08T08:47:56;96406.75;;;6.47;50.14
50977;BME280;36992;48.200;12.418;2024-03-08T08:50:25;96405.16;;;6.51;49.90
50977;BME280;36992;48.200;12.418;2024-03-08T08:52:55;96397.63;;;6.53;50.06
50977;BME280;36992;48.200;12.418;2024-03-08T08:55:21;96398.16;;;6.55;50.34
50977;BME280;36992;48.200;12.418;2024-03-08T08:57:50;96399.22;;;6.59;50.20
50977;BME280;36992;48.200;12.418;2024-03-08T09:00:18;96392.25;;;6.64;50.39
50977;BME280;36992;48.200;12.418;2024-03-08T09:02:46;96394.09;;;6.68;50.38
50977;BME280;36992;48.200;12.418;2024-03-08T09:05:12;96390.59;;;6.73;50.52
50977;BME280;36992;48.200;12.418;2024-03-08T09:07:42;96386.56;;;6.81;50.11
50977;BME280;36992;48.200;12.418;2024-03-08T09:10:11;96387.03;;;6.88;49.94
50977;BME280;36992;48.200;12.418;2024-03-08T09:12:39;96385.69;;;6.91;49.71
50977;BME280;36992;48.200;12.418;2024-03-08T09:15:07;96378.41;;;6.96;49.86
50977;BME280;36992;48.200;12.418;2024-03-08T09:17:36;96370.63;;;7.00;49.73
50977;BME280;36992;48.200;12.418;2024-03-08T09:20:06;96365.25;;;7.05;49.62
50977;BME280;36992;48.200;12.418;2024-03-08T09:22:32;96368.97;;;7.09;49.75
50977;BME280;36992;48.200;12.418;2024-03-08T09:24:59;96366.53;;;7.13;49.44
50977;BME280;36992;48.200;12.418;2024-03-08T09:27:27;96365.44;;;7.19;49.75
50977;BME280;36992;48.200;12.418;2024-03-08T09:29:53;96358.72;;;7.22;49.78
50977;BME280;36992;48.200;12.418;2024-03-08T09:32:20;96358.69;;;7.27;49.74
50977;BME280;36992;48.200;12.418;2024-03-08T09:34:48;96350.88;;;7.31;49.45
50977;BME280;36992;48.200;12.418;2024-03-08T09:37:15;96353.53;;;7.36;49.14
50977;BME280;36992;48.200;12.418;2024-03-08T09:39:42;96346.50;;;7.40;48.77
50977;BME280;36992;48.200;12.418;2024-03-08T09:42:09;96340.34;;;7.45;48.69
50977;BME280;36992;48.200;12.418;2024-03-08T09:44:44;96335.44;;;7.52;48.75
50977;BME280;36992;48.200;12.418;2024-03-08T09:47:11;96334.38;;;7.53;48.30
50977;BME280;36992;48.200;12.418;2024-03-08T09:49:40;96335.09;;;7.59;48.39
50977;BME280;36992;48.200;12.418;2024-03-08T09:52:07;96342.31;;;7.63;48.88
50977;BME280;36992;48.200;12.418;2024-03-08T09:54:34;96342.25;;;7.68;49.03
50977;BME280;36992;48.200;12.418;2024-03-08T09:57:03;96354.25;;;7.76;48.18
50977;BME280;36992;48.200;12.418;2024-03-08T09:59:30;96337.91;;;7.78;48.44
50977;BME280;36992;48.200;12.418;2024-03-08T10:02:14;96341.03;;;7.85;48.32
50977;BME280;36992;48.200;12.418;2024-03-08T10:04:41;96337.00;;;7.88;47.56
50977;BME280;36992;48.200;12.418;2024-03-08T10:07:08;96339.63;;;7.93;48.10
50977;BME280;36992;48.200;12.418;2024-03-08T10:09:35;96338.50;;;7.99;48.49
50977;BME280;36992;48.200;12.418;2024-03-08T10:12:01;96328.50;;;8.05;48.10
50977;BME280;36992;48.200;12.418;2024-03-08T10:14:28;96323.06;;;8.10;47.70
50977;BME280;36992;48.200;12.418;2024-03-08T10:16:55;96328.38;;;8.15;48.10
50977;BME280;36992;48.200;12.418;2024-03-08T10:19:26;96333.13;;;8.23;47.91
50977;BME280;36992;48.200;12.418;2024-03-08T10:21:53;96319.44;;;8.25;47.56
50977;BME280;36992;48.200;12.418;2024-03-08T10:24:22;96322.84;;;8.31;47.36
50977;BME280;36992;48.200;12.418;2024-03-08T10:26:51;96313.63;;;8.37;47.43
50977;BME280;36992;48.200;12.418;2024-03-08T10:29:18;96314.94;;;8.40;47.63
50977;BME280;36992;48.200;12.418;2024-03-08T10:31:45;96318.06;;;8.47;47.98
50977;BME280;36992;48.200;12.418;2024-03-08T10:34:12;96320.44;;;8.54;47.32
50977;BME280;36992;48.200;12.418;2024-03-08T10:36:40;96314.44;;;8.62;47.01
50977;BME280;36992;48.200;12.418;2024-03-08T10:39:10;96306.03;;;8.69;46.94
50977;BME280;36992;48.200;12.418;2024-03-08T10:41:43;96310.44;;;8.79;46.92
50977;BME280;36992;48.200;12.418;2024-03-08T10:44:20;96298.53;;;8.85;46.80
50977;BME280;36992;48.200;12.418;2024-03-08T10:47:00;96310.31;;;8.89;47.10
50977;BME280;36992;48.200;12.418;2024-03-08T10:49:31;96293.38;;;8.88;46.42
50977;BME280;36992;48.200;12.418;2024-03-08T10:52:02;96294.63;;;8.96;46.00
50977;BME280;36992;48.200;12.418;2024-03-08T10:54:31;96296.50;;;8.96;46.13
50977;BME280;36992;48.200;12.418;2024-03-08T10:56:59;96289.19;;;9.01;46.39
50977;BME280;36992;48.200;12.418;2024-03-08T10:59:26;96287.19;;;9.07;46.09
50977;BME280;36992;48.200;12.418;2024-03-08T11:01:53;96281.75;;;9.12;44.52
50977;BME280;36992;48.200;12.418;2024-03-08T11:04:20;96278.38;;;9.21;45.10
50977;BME280;36992;48.200;12.418;2024-03-08T11:06:50;96278.53;;;9.29;45.42
50977;BME280;36992;48.200;12.418;2024-03-08T11:09:29;96275.66;;;9.40;45.83
50977;BME280;36992;48.200;12.418;2024-03-08T11:12:21;96270.09;;;9.50;46.47
50977;BME280;36992;48.200;12.418;2024-03-08T11:14:50;96259.13;;;9.47;44.13
50977;BME280;36992;48.200;12.418;2024-03-08T11:17:20;96256.56;;;9.55;44.95
50977;BME280;36992;48.200;12.418;2024-03-08T11:19:48;96257.88;;;9.58;44.00
50977;BME280;36992;48.200;12.418;2024-03-08T11:22:21;96254.19;;;9.68;44.87
50977;BME280;36992;48.200;12.418;2024-03-08T11:24:51;96245.44;;;9.76;44.57
50977;BME280;36992;48.200;12.418;2024-03-08T11:27:17;96240.84;;;9.77;44.16
50977;BME280;36992;48.200;12.418;2024-03-08T11:29:59;96239.06;;;9.86;43.73
50977;BME280;36992;48.200;12.418;2024-03-08T11:32:28;96240.38;;;9.89;42.66
50977;BME280;36992;48.200;12.418;2024-03-08T11:34:55;96233.91;;;9.90;42.76
50977;BME280;36992;48.200;12.418;2024-03-08T11:37:22;96232.69;;;9.96;42.24
50977;BME280;36992;48.200;12.418;2024-03-08T11:39:52;96223.44;;;10.02;43.62
50977;BME280;36992;48.200;12.418;2024-03-08T11:42:24;96224.72;;;10.05;42.57
50977;BME280;36992;48.200;12.418;2024-03-08T11:44:52;96223.00;;;10.09;42.41
50977;BME280;36992;48.200;12.418;2024-03-08T11:47:19;96221.03;;;10.15;41.81
50977;BME280;36992;48.200;12.418;2024-03-08T11:49:45;96213.13;;;10.18;41.15
50977;BME280;36992;48.200;12.418;2024-03-08T11:52:14;96218.72;;;10.22;41.86
50977;BME280;36992;48.200;12.418;2024-03-08T11:54:42;96222.69;;;10.24;41.34
50977;BME280;36992;48.200;12.418;2024-03-08T11:57:17;96216.69;;;10.28;42.32
50977;BME280;36992;48.200;12.418;2024-03-08T11:59:49;96200.25;;;10.29;42.17
50977;BME280;36992;48.200;12.418;2024-03-08T12:02:16;96202.94;;;10.29;41.80
50977;BME280;36992;48.200;12.418;2024-03-08T12:04:44;96200.44;;;10.33;41.67
50977;BME280;36992;48.200;12.418;2024-03-08T12:07:11;96194.13;;;10.37;41.63
50977;BME280;36992;48.200;12.418;2024-03-08T12:09:40;96194.06;;;10.43;41.35
50977;BME280;36992;48.200;12.418;2024-03-08T12:12:11;96193.75;;;10.44;40.49
50977;BME280;36992;48.200;12.418;2024-03-08T12:14:42;96189.56;;;10.52;41.24
50977;BME280;36992;48.200;12.418;2024-03-08T12:17:09;96184.16;;;10.52;41.13
50977;BME280;36992;48.200;12.418;2024-03-08T12:19:36;96188.94;;;10.55;41.02
50977;BME280;36992;48.200;12.418;2024-03-08T12:22:07;96182.31;;;10.61;41.03
50977;BME280;36992;48.200;12.418;2024-03-08T12:24:35;96180.16;;;10.63;40.58
50977;BME280;36992;48.200;12.418;2024-03-08T12:27:17;96178.28;;;10.73;41.68
50977;BME280;36992;48.200;12.418;2024-03-08T12:29:45;96170.69;;;10.75;40.79
50977;BME280;36992;48.200;12.418;2024-03-08T12:32:12;96173.72;;;10.73;40.45
50977;BME280;36992;48.200;12.418;2024-03-08T12:34:39;96160.72;;;10.75;40.44
50977;BME280;36992;48.200;12.418;2024-03-08T12:37:06;96171.03;;;10.73;40.02
50977;BME280;36992;48.200;12.418;2024-03-08T12:39:35;96164.03;;;10.72;39.49
50977;BME280;36992;48.200;12.418;2024-03-08T12:42:02;96165.94;;;10.72;39.95
50977;BME280;36992;48.200;12.418;2024-03-08T12:44:29;96155.16;;;10.72;40.29
50977;BME280;36992;48.200;12.418;2024-03-08T12:46:57;96153.75;;;10.74;41.14
50977;BME280;36992;48.200;12.418;2024-03-08T12:49:24;96149.13;;;10.75;40.46
50977;BME280;36992;48.200;12.418;2024-03-08T12:51:52;96144.25;;;10.77;40.96
50977;BME280;36992;48.200;12.418;2024-03-08T12:54:18;96143.34;;;10.82;39.78
50977;BME280;36992;48.200;12.418;2024-03-08T12:56:48;96145.72;;;10.83;40.23
50977;BME280;36992;48.200;12.418;2024-03-08T12:59:18;96139.13;;;10.89;40.10
50977;BME280;36992;48.200;12.418;2024-03-08T13:01:45;96134.19;;;10.91;40.72
50977;BME280;36992;48.200;12.418;2024-03-08T13:04:13;96121.72;;;10.96;40.41